[ [{"id":"current","city":"Tucson","state":"AZ","station":"KTUS","time":1485114780,"time_local":"2017-01-22T12:53:00-0700","timezone_offset":"-7","current_temp":"57","current_temp_c":"14","dew_point":"30","dew_point_c":"-1","relative_humidity":"36","wind_speed":"9","wind_deg":"170","wind_dir":"S","wind_gust":"","barometer":"30.18","weather":"","conditions":"Overcast","icon":2,"text_icon":"cloudy","ceiling":"9000","visibility":"10","heat_index":"57","heat_index_c":"14","wind_chill":"57","wind_chill_c":"14","feels_like":"57","feels_like_c":"14","snow_depth":"","high_temp_6hr":"52","high_temp":"57","low_temp_6hr":"39","low_temp":"41","precip_3hr":"","precip_6hr":"","precip":"","coded_weather":"NSW","enhanced_weather":"","report_text":"KTUS 221953Z 17008KT 10SM FEW075 OVC090 14/M01 A3018 RMK AO2 PRESFR SLP206 T01391011 ","daynight":"D","temp_trend":"HIGHER","wind_low":"9","wind_high":"","update":"2017-01-22T19:53:00+0000","image":"http://bloximages.chicago2.vip.townnews.com/tucson.com/content/tncms/live/components/lee_core_2/resources/images/weather-icons/2.png?_dc=1450868986","radar_map":"http://bloximages.chicago2.vip.townnews.com/tucson.com/shared-content/art/townnews-weather/images/southwest_loop.gif?_dc=1485117005","radar_map_us":"http://bloximages.chicago2.vip.townnews.com/tucson.com/shared-content/art/townnews-weather/images/usa_loop.gif?_dc=1485117005"}] ]